Orlando Sanford International Airport
KSFB : rendu visible

Aérodrome :











RETROUVEZ-NOUS SUR...

 
LOGIN :

S'inscrire | Disclaimer

   EN    FR    IT 

 









Légende :    VFR   VFR Marginal   IFR   IFR Intensif   IFR Très Intensif
Visi : 
Plafond : 
>= 8 km
>= 3000ft
5 à 8 km
1000 à 3000 ft
1500m à 5 km
500 à 1000 ft
800 à 1500m
200 à 500 ft
< 800m
< 200 ft
Symboles :   Orages  Brouillard  Fortes neiges  Fortes précipitations  Vent > 20 kt






- Altitude de l'aérodrome : 55 ft
- Code IATA : SFB


KSFB - Orlando Sanford International

DERNIER METAR :
  • 260153Z 07011KT 10SM SCT013 BKN018 OVC070 22/20 A2992 RMK AO2 SLP131 T02220200

METARs EXPIRÉS :
  • 260053Z 08013KT 10SM BKN060 22/19 A2991 RMK AO2 SLP127 T02220189
  • 252353Z 08012KT 10SM FEW018 22/19 A2992 RMK AO2 SLP129 60020 T02220194 10222 20211 56004

TAF KSFB
Valide du 26 à 00h jusqu'au 27 à 00h UTC


252341Z 2600/2624 09015G24KT P6SM -RA BKN015 OVC030
FM260100 07012KT P6SM -RA SCT015 OVC030
FM260900 11005KT P6SM VCSH SCT025 BKN070
FM261500 23009KT P6SM VCSH SCT030 BKN120
FM262100 15009KT P6SM VCSH SCT040 OVC250
FIR KZJX / Amérique du Nord



MET'MAP, la Météo Aéronautique d'un coup d'oeil ! - Copyright ORBIFLY Décembre 2007 - Disclaimer

ORBIFLY MET'MAP TEAM :

Programmation & Développement : Alexandra Zaïnal
Sur une idée originale de : Baudouin d'Aumeries
Assistance à la programmation : Marc-Olivier Méhu
Soutien technique & logistique : Manuel Goepfert

Contact : metmap@orbifly.com




SOURCES & CREDITS :

   NOAA       Earth
Advisory